sensor_id;sensor_type;location;lat;lon;timestamp;pressure;altitude;pressure_sealevel;temperature;humidity
63808;BME280;49961;43.970;22.868;2024-02-21T00:00:15;102254.69;;;9.54;100.00
63808;BME280;49961;43.970;22.868;2024-02-21T00:01:16;102245.66;;;9.61;100.00
63808;BME280;49961;43.970;22.868;2024-02-21T00:02:17;102046.50;;;8.39;100.00
63808;BME280;49961;43.970;22.868;2024-02-21T00:03:17;102246.81;;;9.56;100.00
63808;BME280;49961;43.970;22.868;2024-02-21T00:04:18;102246.03;;;9.59;100.00
63808;BME280;49961;43.970;22.868;2024-02-21T00:05:18;102164.69;;;9.10;100.00
63808;BME280;49961;43.970;22.868;2024-02-21T00:06:19;102240.50;;;9.59;100.00
63808;BME280;49961;43.970;22.868;2024-02-21T00:07:19;102236.94;;;9.55;100.00
63808;BME280;49961;43.970;22.868;2024-02-21T00:08:20;102239.28;;;9.57;100.00
63808;BME280;49961;43.970;22.868;2024-02-21T00:09:20;102240.91;;;9.61;100.00
63808;BME280;49961;43.970;22.868;2024-02-21T00:10:21;102240.53;;;9.63;100.00
63808;BME280;49961;43.970;22.868;2024-02-21T00:11:21;102238.59;;;9.70;100.00
63808;BME280;49961;43.970;22.868;2024-02-21T00:12:22;102207.69;;;9.58;100.00
63808;BME280;49961;43.970;22.868;2024-02-21T00:13:22;102184.63;;;9.33;100.00
63808;BME280;49961;43.970;22.868;2024-02-21T00:14:23;102239.75;;;9.69;100.00
63808;BME280;49961;43.970;22.868;2024-02-21T00:15:23;102145.28;;;8.99;100.00
63808;BME280;49961;43.970;22.868;2024-02-21T00:16:24;102220.69;;;9.54;100.00
63808;BME280;49961;43.970;22.868;2024-02-21T00:17:24;102215.16;;;9.50;100.00
63808;BME280;49961;43.970;22.868;2024-02-21T00:18:26;102231.44;;;9.66;100.00
63808;BME280;49961;43.970;22.868;2024-02-21T00:19:27;102227.47;;;9.60;100.00
63808;BME280;49961;43.970;22.868;2024-02-21T00:20:27;102215.16;;;9.50;100.00
63808;BME280;49961;43.970;22.868;2024-02-21T00:21:28;102215.16;;;9.54;100.00
63808;BME280;49961;43.970;22.868;2024-02-21T00:22:28;102054.94;;;8.56;100.00
63808;BME280;49961;43.970;22.868;2024-02-21T00:23:31;102223.94;;;9.66;100.00
63808;BME280;49961;43.970;22.868;2024-02-21T00:24:31;102189.38;;;9.39;100.00
63808;BME280;49961;43.970;22.868;2024-02-21T00:25:32;102229.06;;;9.64;100.00
63808;BME280;49961;43.970;22.868;2024-02-21T00:26:32;102198.13;;;9.45;100.00
63808;BME280;49961;43.970;22.868;2024-02-21T00:27:33;102090.22;;;8.73;100.00
63808;BME280;49961;43.970;22.868;2024-02-21T00:28:33;102230.22;;;9.56;100.00
63808;BME280;49961;43.970;22.868;2024-02-21T00:29:34;102218.78;;;9.61;100.00
63808;BME280;49961;43.970;22.868;2024-02-21T00:30:35;102218.34;;;9.59;100.00
63808;BME280;49961;43.970;22.868;2024-02-21T00:31:38;102215.19;;;9.61;100.00
63808;BME280;49961;43.970;22.868;2024-02-21T00:32:38;102114.03;;;8.95;100.00
63808;BME280;49961;43.970;22.868;2024-02-21T00:33:39;102223.13;;;9.66;100.00
63808;BME280;49961;43.970;22.868;2024-02-21T00:34:39;102208.88;;;9.60;100.00
63808;BME280;49961;43.970;22.868;2024-02-21T00:35:40;102179.09;;;9.36;100.00
63808;BME280;49961;43.970;22.868;2024-02-21T00:36:40;102210.41;;;9.54;100.00
63808;BME280;49961;43.970;22.868;2024-02-21T00:37:41;102223.09;;;9.59;100.00
63808;BME280;49961;43.970;22.868;2024-02-21T00:38:41;102138.97;;;9.06;100.00
63808;BME280;49961;43.970;22.868;2024-02-21T00:39:42;102221.09;;;9.56;100.00
63808;BME280;49961;43.970;22.868;2024-02-21T00:40:42;102228.19;;;9.50;100.00
63808;BME280;49961;43.970;22.868;2024-02-21T00:41:43;102221.06;;;9.49;100.00
63808;BME280;49961;43.970;22.868;2024-02-21T00:42:43;102222.22;;;9.44;100.00
63808;BME280;49961;43.970;22.868;2024-02-21T00:43:44;102220.97;;;9.31;100.00
63808;BME280;49961;43.970;22.868;2024-02-21T00:44:44;102220.97;;;9.35;100.00
63808;BME280;49961;43.970;22.868;2024-02-21T00:45:45;102135.28;;;8.81;100.00
63808;BME280;49961;43.970;22.868;2024-02-21T00:46:45;102222.19;;;9.37;100.00
63808;BME280;49961;43.970;22.868;2024-02-21T00:47:47;102213.09;;;9.37;100.00
63808;BME280;49961;43.970;22.868;2024-02-21T00:48:47;102225.25;;;9.22;100.00
63808;BME280;49961;43.970;22.868;2024-02-21T00:49:48;102217.72;;;9.19;100.00
63808;BME280;49961;43.970;22.868;2024-02-21T00:50:49;102203.38;;;9.03;100.00
63808;BME280;49961;43.970;22.868;2024-02-21T00:51:49;102217.66;;;9.12;100.00
63808;BME280;49961;43.970;22.868;2024-02-21T00:52:50;102215.69;;;9.12;100.00
63808;BME280;49961;43.970;22.868;2024-02-21T00:53:50;102227.06;;;9.04;100.00
63808;BME280;49961;43.970;22.868;2024-02-21T00:54:51;102226.38;;;9.14;100.00
63808;BME280;49961;43.970;22.868;2024-02-21T00:55:51;102208.16;;;9.09;100.00
63808;BME280;49961;43.970;22.868;2024-02-21T00:56:52;102211.28;;;9.04;100.00
63808;BME280;49961;43.970;22.868;2024-02-21T00:57:52;102208.44;;;8.97;100.00
63808;BME280;49961;43.970;22.868;2024-02-21T00:58:53;102216.38;;;8.99;100.00
63808;BME280;49961;43.970;22.868;2024-02-21T00:59:53;102154.00;;;8.54;100.00
63808;BME280;49961;43.970;22.868;2024-02-21T01:00:54;102171.88;;;8.67;100.00
63808;BME280;49961;43.970;22.868;2024-02-21T01:01:54;102227.41;;;8.95;100.00
63808;BME280;49961;43.970;22.868;2024-02-21T01:02:55;102202.47;;;8.88;100.00
63808;BME280;49961;43.970;22.868;2024-02-21T01:03:55;102204.06;;;8.93;100.00
63808;BME280;49961;43.970;22.868;2024-02-21T01:04:56;102213.56;;;8.92;100.00
63808;BME280;49961;43.970;22.868;2024-02-21T01:05:56;102207.19;;;8.88;100.00
63808;BME280;49961;43.970;22.868;2024-02-21T01:06:57;102140.09;;;8.44;100.00
63808;BME280;49961;43.970;22.868;2024-02-21T01:07:58;102201.19;;;8.79;100.00
63808;BME280;49961;43.970;22.868;2024-02-21T01:08:58;102205.50;;;8.76;100.00
63808;BME280;49961;43.970;22.868;2024-02-21T01:09:59;102197.91;;;8.66;100.00
63808;BME280;49961;43.970;22.868;2024-02-21T01:11:00;102126.28;;;8.04;100.00
63808;BME280;49961;43.970;22.868;2024-02-21T01:12:00;102213.28;;;8.60;100.00
63808;BME280;49961;43.970;22.868;2024-02-21T01:13:01;102094.50;;;7.84;100.00
63808;BME280;49961;43.970;22.868;2024-02-21T01:14:01;102203.69;;;8.47;100.00
63808;BME280;49961;43.970;22.868;2024-02-21T01:15:02;102206.31;;;8.37;100.00
63808;BME280;49961;43.970;22.868;2024-02-21T01:16:03;102177.25;;;8.13;100.00
63808;BME280;49961;43.970;22.868;2024-02-21T01:17:03;102050.06;;;7.23;100.00
63808;BME280;49961;43.970;22.868;2024-02-21T01:18:06;102199.38;;;8.17;100.00
63808;BME280;49961;43.970;22.868;2024-02-21T01:19:06;102119.78;;;7.53;100.00
63808;BME280;49961;43.970;22.868;2024-02-21T01:20:07;102147.38;;;7.86;100.00
63808;BME280;49961;43.970;22.868;2024-02-21T01:21:08;102192.31;;;8.19;100.00
63808;BME280;49961;43.970;22.868;2024-02-21T01:22:10;102188.25;;;8.10;100.00
63808;BME280;49961;43.970;22.868;2024-02-21T01:23:10;102162.31;;;7.81;100.00
63808;BME280;49961;43.970;22.868;2024-02-21T01:24:11;102188.13;;;7.99;100.00
63808;BME280;49961;43.970;22.868;2024-02-21T01:25:11;102198.50;;;8.09;100.00
63808;BME280;49961;43.970;22.868;2024-02-21T01:26:12;102154.06;;;7.85;100.00
63808;BME280;49961;43.970;22.868;2024-02-21T01:27:14;102198.91;;;8.11;100.00
63808;BME280;49961;43.970;22.868;2024-02-21T01:28:15;102190.19;;;8.06;100.00
63808;BME280;49961;43.970;22.868;2024-02-21T01:29:15;102111.91;;;7.55;100.00
63808;BME280;49961;43.970;22.868;2024-02-21T01:30:16;102198.84;;;8.04;100.00
63808;BME280;49961;43.970;22.868;2024-02-21T01:31:16;102195.31;;;8.04;100.00
63808;BME280;49961;43.970;22.868;2024-02-21T01:32:17;102133.31;;;7.65;100.00
63808;BME280;49961;43.970;22.868;2024-02-21T01:33:17;102194.88;;;8.02;100.00
63808;BME280;49961;43.970;22.868;2024-02-21T01:34:19;102182.94;;;7.94;100.00
63808;BME280;49961;43.970;22.868;2024-02-21T01:35:19;102110.56;;;7.42;100.00
63808;BME280;49961;43.970;22.868;2024-02-21T01:36:20;102088.34;;;7.28;100.00
63808;BME280;49961;43.970;22.868;2024-02-21T01:37:20;102193.22;;;7.94;100.00
63808;BME280;49961;43.970;22.868;2024-02-21T01:38:21;102186.47;;;7.91;100.00
63808;BME280;49961;43.970;22.868;2024-02-21T01:39:22;102188.75;;;7.86;100.00
63808;BME280;49961;43.970;22.868;2024-02-21T01:40:22;102171.63;;;7.70;100.00
63808;BME280;49961;43.970;22.868;2024-02-21T01:41:23;102174.41;;;7.73;100.00
63808;BME280;49961;43.970;22.868;2024-02-21T01:42:23;102187.19;;;7.85;100.00
63808;BME280;49961;43.970;22.868;2024-02-21T01:43:24;102179.75;;;7.89;100.00
63808;BME280;49961;43.970;22.868;2024-02-21T01:44:25;102165.72;;;7.71;100.00
63808;BME280;49961;43.970;22.868;2024-02-21T01:45:25;102183.19;;;7.82;100.00
63808;BME280;49961;43.970;22.868;2024-02-21T01:46:26;102108.03;;;7.30;100.00
63808;BME280;49961;43.970;22.868;2024-02-21T01:47:28;102157.31;;;7.61;100.00
63808;BME280;49961;43.970;22.868;2024-02-21T01:48:29;102177.22;;;7.77;100.00
63808;BME280;49961;43.970;22.868;2024-02-21T01:49:30;101971.91;;;6.49;100.00
63808;BME280;49961;43.970;22.868;2024-02-21T01:50:30;102113.19;;;7.31;100.00
63808;BME280;49961;43.970;22.868;2024-02-21T01:51:31;102104.75;;;7.21;100.00
63808;BME280;49961;43.970;22.868;2024-02-21T01:52:33;102107.16;;;7.22;100.00
63808;BME280;49961;43.970;22.868;2024-02-21T01:53:42;102108.00;;;7.26;100.00
63808;BME280;49961;43.970;22.868;2024-02-21T01:54:44;102172.84;;;7.72;100.00
63808;BME280;49961;43.970;22.868;2024-02-21T01:55:48;102105.63;;;7.25;100.00
63808;BME280;49961;43.970;22.868;2024-02-21T01:56:49;102177.91;;;7.70;100.00
63808;BME280;49961;43.970;22.868;2024-02-21T01:57:50;102165.25;;;7.66;100.00
63808;BME280;49961;43.970;22.868;2024-02-21T01:58:51;102064.31;;;6.99;100.00
63808;BME280;49961;43.970;22.868;2024-02-21T01:59:52;102156.53;;;7.60;100.00
63808;BME280;49961;43.970;22.868;2024-02-21T02:00:53;102133.38;;;7.39;100.00
63808;BME280;49961;43.970;22.868;2024-02-21T02:01:56;102176.66;;;7.64;100.00
63808;BME280;49961;43.970;22.868;2024-02-21T02:02:57;102089.31;;;7.13;100.00
63808;BME280;49961;43.970;22.868;2024-02-21T02:03:59;102151.34;;;7.55;100.00
63808;BME280;49961;43.970;22.868;2024-02-21T02:05:00;102174.81;;;7.75;100.00
63808;BME280;49961;43.970;22.868;2024-02-21T02:06:01;102159.28;;;7.60;100.00
63808;BME280;49961;43.970;22.868;2024-02-21T02:07:03;102089.97;;;7.03;100.00
63808;BME280;49961;43.970;22.868;2024-02-21T02:08:06;102171.63;;;7.70;100.00
63808;BME280;49961;43.970;22.868;2024-02-21T02:09:07;102167.91;;;7.55;100.00
63808;BME280;49961;43.970;22.868;2024-02-21T02:10:08;102068.94;;;6.91;100.00
63808;BME280;49961;43.970;22.868;2024-02-21T02:11:10;102171.94;;;7.65;100.00
63808;BME280;49961;43.970;22.868;2024-02-21T02:12:13;102166.75;;;7.60;100.00
63808;BME280;49961;43.970;22.868;2024-02-21T02:13:14;101996.09;;;6.63;100.00
63808;BME280;49961;43.970;22.868;2024-02-21T02:14:14;102171.97;;;7.68;100.00
63808;BME280;49961;43.970;22.868;2024-02-21T02:15:15;102114.41;;;7.34;100.00
63808;BME280;49961;43.970;22.868;2024-02-21T02:16:16;102116.00;;;7.35;100.00
63808;BME280;49961;43.970;22.868;2024-02-21T02:17:16;102115.09;;;7.27;100.00
63808;BME280;49961;43.970;22.868;2024-02-21T02:18:19;102153.16;;;7.44;100.00
63808;BME280;49961;43.970;22.868;2024-02-21T02:19:20;102161.09;;;7.49;100.00
63808;BME280;49961;43.970;22.868;2024-02-21T02:20:20;102172.66;;;7.58;100.00
63808;BME280;49961;43.970;22.868;2024-02-21T02:21:29;102124.25;;;7.35;100.00
63808;BME280;49961;43.970;22.868;2024-02-21T02:22:31;102163.16;;;7.56;100.00
63808;BME280;49961;43.970;22.868;2024-02-21T02:23:34;102143.66;;;7.42;100.00
63808;BME280;49961;43.970;22.868;2024-02-21T02:24:35;102162.22;;;7.45;100.00
63808;BME280;49961;43.970;22.868;2024-02-21T02:25:36;102167.25;;;7.39;100.00
63808;BME280;49961;43.970;22.868;2024-02-21T02:26:37;102111.53;;;6.97;100.00
63808;BME280;49961;43.970;22.868;2024-02-21T02:27:43;102172.59;;;7.25;100.00
63808;BME280;49961;43.970;22.868;2024-02-21T02:28:45;102154.34;;;7.17;100.00
63808;BME280;49961;43.970;22.868;2024-02-21T02:29:45;102157.44;;;7.12;100.00
63808;BME280;49961;43.970;22.868;2024-02-21T02:30:46;102170.94;;;7.21;100.00
63808;BME280;49961;43.970;22.868;2024-02-21T02:31:47;102168.03;;;7.10;100.00
63808;BME280;49961;43.970;22.868;2024-02-21T02:32:47;102126.75;;;6.88;100.00
63808;BME280;49961;43.970;22.868;2024-02-21T02:33:48;102176.69;;;7.09;100.00
63808;BME280;49961;43.970;22.868;2024-02-21T02:34:48;102173.44;;;7.03;100.00
63808;BME280;49961;43.970;22.868;2024-02-21T02:35:49;102176.19;;;7.03;100.00
63808;BME280;49961;43.970;22.868;2024-02-21T02:36:49;102176.28;;;7.07;100.00
63808;BME280;49961;43.970;22.868;2024-02-21T02:37:50;102171.06;;;7.02;100.00
63808;BME280;49961;43.970;22.868;2024-02-21T02:38:51;102141.53;;;6.76;100.00
63808;BME280;49961;43.970;22.868;2024-02-21T02:39:51;102153.47;;;6.84;100.00
63808;BME280;49961;43.970;22.868;2024-02-21T02:40:52;102178.16;;;7.03;100.00
63808;BME280;49961;43.970;22.868;2024-02-21T02:41:52;102171.47;;;7.04;100.00
63808;BME280;49961;43.970;22.868;2024-02-21T02:42:53;102175.06;;;7.04;100.00
63808;BME280;49961;43.970;22.868;2024-02-21T02:43:55;102177.81;;;7.04;100.00
63808;BME280;49961;43.970;22.868;2024-02-21T02:44:55;102120.59;;;6.72;100.00
63808;BME280;49961;43.970;22.868;2024-02-21T02:45:57;102115.06;;;6.68;100.00
63808;BME280;49961;43.970;22.868;2024-02-21T02:46:58;102152.09;;;6.97;100.00
63808;BME280;49961;43.970;22.868;2024-02-21T02:47:58;102171.47;;;7.04;100.00
63808;BME280;49961;43.970;22.868;2024-02-21T02:48:59;102165.13;;;7.00;100.00
63808;BME280;49961;43.970;22.868;2024-02-21T02:50:00;102090.69;;;6.48;100.00
63808;BME280;49961;43.970;22.868;2024-02-21T02:51:00;102171.44;;;7.00;100.00
63808;BME280;49961;43.970;22.868;2024-02-21T02:52:01;102177.38;;;7.02;100.00
63808;BME280;49961;43.970;22.868;2024-02-21T02:53:01;102112.97;;;6.62;100.00
63808;BME280;49961;43.970;22.868;2024-02-21T02:54:02;102143.34;;;6.91;100.00
63808;BME280;49961;43.970;22.868;2024-02-21T02:55:04;102115.34;;;6.63;100.00
63808;BME280;49961;43.970;22.868;2024-02-21T02:56:05;102162.22;;;6.89;100.00
63808;BME280;49961;43.970;22.868;2024-02-21T02:57:05;102156.22;;;6.84;100.00
63808;BME280;49961;43.970;22.868;2024-02-21T02:58:07;102112.00;;;6.51;100.00
63808;BME280;49961;43.970;22.868;2024-02-21T02:59:09;102050.03;;;6.15;100.00
63808;BME280;49961;43.970;22.868;2024-02-21T03:00:13;102138.00;;;6.76;100.00
63808;BME280;49961;43.970;22.868;2024-02-21T03:01:14;102120.06;;;6.63;100.00
63808;BME280;49961;43.970;22.868;2024-02-21T03:02:15;102175.78;;;7.01;100.00
63808;BME280;49961;43.970;22.868;2024-02-21T03:03:15;102172.16;;;6.97;100.00
63808;BME280;49961;43.970;22.868;2024-02-21T03:04:16;102175.41;;;7.03;100.00
63808;BME280;49961;43.970;22.868;2024-02-21T03:05:21;102170.69;;;7.03;100.00
63808;BME280;49961;43.970;22.868;2024-02-21T03:06:21;102010.03;;;5.99;100.00
63808;BME280;49961;43.970;22.868;2024-02-21T03:07:22;102136.88;;;6.80;100.00
63808;BME280;49961;43.970;22.868;2024-02-21T03:08:22;102098.28;;;6.54;100.00
63808;BME280;49961;43.970;22.868;2024-02-21T03:09:23;102182.47;;;7.00;100.00
63808;BME280;49961;43.970;22.868;2024-02-21T03:10:23;102179.06;;;6.84;100.00
63808;BME280;49961;43.970;22.868;2024-02-21T03:11:24;102174.81;;;6.90;100.00
63808;BME280;49961;43.970;22.868;2024-02-21T03:12:29;102165.47;;;6.72;100.00
63808;BME280;49961;43.970;22.868;2024-02-21T03:13:29;102178.25;;;6.84;100.00
63808;BME280;49961;43.970;22.868;2024-02-21T03:14:30;102181.88;;;6.88;100.00
63808;BME280;49961;43.970;22.868;2024-02-21T03:15:30;102181.44;;;6.86;100.00
63808;BME280;49961;43.970;22.868;2024-02-21T03:16:31;102113.91;;;6.47;100.00
63808;BME280;49961;43.970;22.868;2024-02-21T03:17:32;102176.41;;;6.91;100.00
63808;BME280;49961;43.970;22.868;2024-02-21T03:18:34;102171.94;;;6.83;100.00
63808;BME280;49961;43.970;22.868;2024-02-21T03:19:35;102181.00;;;6.84;100.00
63808;BME280;49961;43.970;22.868;2024-02-21T03:20:35;102140.78;;;6.53;100.00
63808;BME280;49961;43.970;22.868;2024-02-21T03:21:35;102116.97;;;6.42;100.00
63808;BME280;49961;43.970;22.868;2024-02-21T03:22:36;102068.91;;;6.13;100.00
63808;BME280;49961;43.970;22.868;2024-02-21T03:23:37;102115.00;;;6.42;100.00
63808;BME280;49961;43.970;22.868;2024-02-21T03:24:38;102180.66;;;6.85;100.00
63808;BME280;49961;43.970;22.868;2024-02-21T03:25:38;102126.69;;;6.36;100.00
63808;BME280;49961;43.970;22.868;2024-02-21T03:26:39;102174.47;;;6.92;100.00
63808;BME280;49961;43.970;22.868;2024-02-21T03:27:40;102131.19;;;6.70;100.00
63808;BME280;49961;43.970;22.868;2024-02-21T03:28:41;102178.53;;;7.01;100.00
63808;BME280;49961;43.970;22.868;2024-02-21T03:29:41;102164.69;;;6.98;100.00
63808;BME280;49961;43.970;22.868;2024-02-21T03:30:42;102177.41;;;7.06;100.00
63808;BME280;49961;43.970;22.868;2024-02-21T03:31:42;102165.59;;;7.05;100.00
63808;BME280;49961;43.970;22.868;2024-02-21T03:32:43;102164.47;;;7.10;100.00
63808;BME280;49961;43.970;22.868;2024-02-21T03:33:44;102146.50;;;6.93;100.00
63808;BME280;49961;43.970;22.868;2024-02-21T03:34:44;102176.47;;;7.21;100.00
63808;BME280;49961;43.970;22.868;2024-02-21T03:35:45;102175.63;;;7.17;100.00
63808;BME280;49961;43.970;22.868;2024-02-21T03:36:45;102181.19;;;7.20;100.00
63808;BME280;49961;43.970;22.868;2024-02-21T03:37:46;101922.13;;;5.61;100.00
63808;BME280;49961;43.970;22.868;2024-02-21T03:38:46;102161.41;;;7.15;100.00
63808;BME280;49961;43.970;22.868;2024-02-21T03:39:48;102163.88;;;7.23;100.00
63808;BME280;49961;43.970;22.868;2024-02-21T03:40:48;102159.19;;;7.24;100.00
63808;BME280;49961;43.970;22.868;2024-02-21T03:41:49;102180.22;;;7.35;100.00
63808;BME280;49961;43.970;22.868;2024-02-21T03:42:49;102189.22;;;7.32;100.00
63808;BME280;49961;43.970;22.868;2024-02-21T03:43:50;102186.25;;;7.44;100.00
63808;BME280;49961;43.970;22.868;2024-02-21T03:44:50;102171.31;;;7.45;100.00
63808;BME280;49961;43.970;22.868;2024-02-21T03:45:51;102163.75;;;7.42;100.00
63808;BME280;49961;43.970;22.868;2024-02-21T03:46:51;102175.38;;;7.55;100.00
63808;BME280;49961;43.970;22.868;2024-02-21T03:47:52;102136.28;;;7.20;100.00
63808;BME280;49961;43.970;22.868;2024-02-21T03:48:52;102180.56;;;7.60;100.00
63808;BME280;49961;43.970;22.868;2024-02-21T03:49:53;102183.28;;;7.56;100.00
63808;BME280;49961;43.970;22.868;2024-02-21T03:50:53;102174.16;;;7.52;100.00
63808;BME280;49961;43.970;22.868;2024-02-21T03:51:54;102169.81;;;7.51;100.00
63808;BME280;49961;43.970;22.868;2024-02-21T03:52:54;102180.50;;;7.56;100.00
63808;BME280;49961;43.970;22.868;2024-02-21T03:53:55;102156.31;;;7.43;100.00
63808;BME280;49961;43.970;22.868;2024-02-21T03:54:55;102145.91;;;7.33;100.00
63808;BME280;49961;43.970;22.868;2024-02-21T03:55:56;102179.41;;;7.64;100.00
63808;BME280;49961;43.970;22.868;2024-02-21T03:56:57;102183.34;;;7.63;100.00
63808;BME280;49961;43.970;22.868;2024-02-21T03:57:57;102093.13;;;7.05;100.00
63808;BME280;49961;43.970;22.868;2024-02-21T03:58:58;102140.84;;;7.38;100.00
63808;BME280;49961;43.970;22.868;2024-02-21T03:59:58;102179.41;;;7.64;100.00
63808;BME280;49961;43.970;22.868;2024-02-21T04:01:02;102180.25;;;7.68;100.00
63808;BME280;49961;43.970;22.868;2024-02-21T04:02:03;102121.91;;;7.37;100.00
63808;BME280;49961;43.970;22.868;2024-02-21T04:03:08;102183.91;;;7.76;100.00
63808;BME280;49961;43.970;22.868;2024-02-21T04:04:10;102190.63;;;7.78;100.00
63808;BME280;49961;43.970;22.868;2024-02-21T04:05:10;102079.88;;;7.14;100.00
63808;BME280;49961;43.970;22.868;2024-02-21T04:06:11;102178.41;;;7.79;100.00
63808;BME280;49961;43.970;22.868;2024-02-21T04:07:13;102177.66;;;7.79;100.00
63808;BME280;49961;43.970;22.868;2024-02-21T04:08:13;102077.91;;;7.14;100.00
63808;BME280;49961;43.970;22.868;2024-02-21T04:09:14;102167.59;;;7.64;100.00
63808;BME280;49961;43.970;22.868;2024-02-21T04:10:15;102097.06;;;7.33;100.00
63808;BME280;49961;43.970;22.868;2024-02-21T04:11:15;102174.44;;;7.77;100.00
63808;BME280;49961;43.970;22.868;2024-02-21T04:12:17;102176.09;;;7.81;100.00
63808;BME280;49961;43.970;22.868;2024-02-21T04:13:18;102194.63;;;7.81;100.00
63808;BME280;49961;43.970;22.868;2024-02-21T04:14:18;102155.09;;;7.73;100.00
63808;BME280;49961;43.970;22.868;2024-02-21T04:15:19;102170.16;;;7.79;100.00
63808;BME280;49961;43.970;22.868;2024-02-21T04:16:19;102168.47;;;7.71;100.00
63808;BME280;49961;43.970;22.868;2024-02-21T04:17:20;102174.78;;;7.72;100.00
63808;BME280;49961;43.970;22.868;2024-02-21T04:18:20;102178.38;;;7.76;100.00
63808;BME280;49961;43.970;22.868;2024-02-21T04:19:22;102175.63;;;7.76;100.00
63808;BME280;49961;43.970;22.868;2024-02-21T04:20:22;102170.91;;;7.76;100.00
63808;BME280;49961;43.970;22.868;2024-02-21T04:21:23;102174.44;;;7.77;100.00
63808;BME280;49961;43.970;22.868;2024-02-21T04:22:24;102102.16;;;7.31;100.00
63808;BME280;49961;43.970;22.868;2024-02-21T04:23:24;102168.97;;;7.80;100.00
63808;BME280;49961;43.970;22.868;2024-02-21T04:24:25;102145.06;;;7.58;100.00
63808;BME280;49961;43.970;22.868;2024-02-21T04:25:25;102168.53;;;7.75;100.00
63808;BME280;49961;43.970;22.868;2024-02-21T04:26:26;102181.09;;;7.72;100.00
63808;BME280;49961;43.970;22.868;2024-02-21T04:27:27;102175.91;;;7.67;100.00
63808;BME280;49961;43.970;22.868;2024-02-21T04:28:27;102182.63;;;7.66;100.00
63808;BME280;49961;43.970;22.868;2024-02-21T04:29:28;102155.09;;;7.40;100.00
63808;BME280;49961;43.970;22.868;2024-02-21T04:30:28;102086.00;;;7.00;100.00
63808;BME280;49961;43.970;22.868;2024-02-21T04:31:29;101970.75;;;6.24;100.00
63808;BME280;49961;43.970;22.868;2024-02-21T04:32:29;102129.66;;;7.24;100.00
63808;BME280;49961;43.970;22.868;2024-02-21T04:33:30;102143.91;;;7.30;100.00
63808;BME280;49961;43.970;22.868;2024-02-21T04:34:30;102170.78;;;7.36;100.00
63808;BME280;49961;43.970;22.868;2024-02-21T04:35:31;102098.84;;;6.89;100.00
63808;BME280;49961;43.970;22.868;2024-02-21T04:36:31;102187.00;;;7.41;100.00
63808;BME280;49961;43.970;22.868;2024-02-21T04:37:33;102175.41;;;7.29;100.00
63808;BME280;49961;43.970;22.868;2024-02-21T04:38:34;102172.97;;;7.24;100.00
63808;BME280;49961;43.970;22.868;2024-02-21T04:39:34;102099.59;;;6.64;100.00
63808;BME280;49961;43.970;22.868;2024-02-21T04:40:35;102150.16;;;7.01;100.00
63808;BME280;49961;43.970;22.868;2024-02-21T04:41:35;102156.13;;;7.03;100.00
63808;BME280;49961;43.970;22.868;2024-02-21T04:42:36;102180.56;;;7.30;100.00
63808;BME280;49961;43.970;22.868;2024-02-21T04:43:36;102169.81;;;7.22;100.00
63808;BME280;49961;43.970;22.868;2024-02-21T04:44:37;102178.94;;;7.29;100.00
63808;BME280;49961;43.970;22.868;2024-02-21T04:45:38;102188.03;;;7.30;100.00
63808;BME280;49961;43.970;22.868;2024-02-21T04:46:42;102114.25;;;6.68;100.00
63808;BME280;49961;43.970;22.868;2024-02-21T04:47:42;102187.59;;;7.28;100.00
63808;BME280;49961;43.970;22.868;2024-02-21T04:48:43;102174.56;;;7.25;100.00
63808;BME280;49961;43.970;22.868;2024-02-21T04:49:43;102184.44;;;7.29;100.00
63808;BME280;49961;43.970;22.868;2024-02-21T04:50:44;102178.16;;;7.29;100.00
63808;BME280;49961;43.970;22.868;2024-02-21T04:51:45;102161.53;;;7.22;100.00
63808;BME280;49961;43.970;22.868;2024-02-21T04:52:45;102186.13;;;7.34;100.00
63808;BME280;49961;43.970;22.868;2024-02-21T04:53:46;102191.25;;;7.35;100.00
63808;BME280;49961;43.970;22.868;2024-02-21T04:54:46;102184.91;;;7.31;100.00
63808;BME280;49961;43.970;22.868;2024-02-21T04:55:47;102103.84;;;6.84;100.00
63808;BME280;49961;43.970;22.868;2024-02-21T04:56:47;102061.25;;;6.52;100.00
63808;BME280;49961;43.970;22.868;2024-02-21T04:57:48;102179.75;;;7.30;100.00
63808;BME280;49961;43.970;22.868;2024-02-21T04:58:48;102168.25;;;7.24;100.00
63808;BME280;49961;43.970;22.868;2024-02-21T04:59:49;102174.28;;;7.33;100.00
63808;BME280;49961;43.970;22.868;2024-02-21T05:00:49;102184.03;;;7.27;100.00
63808;BME280;49961;43.970;22.868;2024-02-21T05:01:50;102185.56;;;7.25;100.00
63808;BME280;49961;43.970;22.868;2024-02-21T05:02:51;102185.91;;;7.20;100.00
63808;BME280;49961;43.970;22.868;2024-02-21T05:03:51;102188.56;;;7.13;100.00
63808;BME280;49961;43.970;22.868;2024-02-21T05:04:52;102192.41;;;7.08;100.00
63808;BME280;49961;43.970;22.868;2024-02-21T05:05:53;102180.94;;;7.03;100.00
63808;BME280;49961;43.970;22.868;2024-02-21T05:06:53;102196.03;;;7.12;100.00
63808;BME280;49961;43.970;22.868;2024-02-21T05:07:54;102165.16;;;7.03;100.00
63808;BME280;49961;43.970;22.868;2024-02-21T05:08:55;102126.56;;;6.77;100.00
63808;BME280;49961;43.970;22.868;2024-02-21T05:09:58;102193.06;;;7.24;100.00
63808;BME280;49961;43.970;22.868;2024-02-21T05:10:58;102203.34;;;7.27;100.00
63808;BME280;49961;43.970;22.868;2024-02-21T05:11:59;102197.78;;;7.24;100.00
63808;BME280;49961;43.970;22.868;2024-02-21T05:12:59;102197.09;;;7.30;100.00
63808;BME280;49961;43.970;22.868;2024-02-21T05:13:59;102196.78;;;7.35;100.00